sensor_id;sensor_type;location;lat;lon;timestamp;pressure;altitude;pressure_sealevel;temperature;humidity
76128;BME280;64873;50.102;14.434;2023-12-29T00:01:13;99175.91;;;8.56;72.57
76128;BME280;64873;50.102;14.434;2023-12-29T00:03:38;99178.78;;;8.48;72.75
76128;BME280;64873;50.102;14.434;2023-12-29T00:06:04;99164.22;;;8.57;72.26
76128;BME280;64873;50.102;14.434;2023-12-29T00:08:29;99175.50;;;8.59;72.30
76128;BME280;64873;50.102;14.434;2023-12-29T00:10:55;99176.31;;;8.60;72.21
76128;BME280;64873;50.102;14.434;2023-12-29T00:13:20;99182.88;;;8.50;72.67
76128;BME280;64873;50.102;14.434;2023-12-29T00:15:51;99166.69;;;8.52;72.18
76128;BME280;64873;50.102;14.434;2023-12-29T00:18:17;99171.00;;;8.53;72.11
76128;BME280;64873;50.102;14.434;2023-12-29T00:20:43;99175.69;;;8.64;72.05
76128;BME280;64873;50.102;14.434;2023-12-29T00:23:08;99179.81;;;8.47;71.83
76128;BME280;64873;50.102;14.434;2023-12-29T00:25:37;99180.41;;;8.49;72.29
76128;BME280;64873;50.102;14.434;2023-12-29T00:28:04;99179.00;;;8.40;71.91
76128;BME280;64873;50.102;14.434;2023-12-29T00:30:29;99165.47;;;8.41;71.43
76128;BME280;64873;50.102;14.434;2023-12-29T00:32:55;99180.41;;;8.49;71.56
76128;BME280;64873;50.102;14.434;2023-12-29T00:35:20;99166.84;;;8.31;72.01
76128;BME280;64873;50.102;14.434;2023-12-29T00:37:46;99180.16;;;8.17;72.87
76128;BME280;64873;50.102;14.434;2023-12-29T00:40:12;99186.72;;;8.35;71.99
76128;BME280;64873;50.102;14.434;2023-12-29T00:42:37;99189.63;;;8.53;71.91
76128;BME280;64873;50.102;14.434;2023-12-29T00:45:03;99192.72;;;8.63;71.50
76128;BME280;64873;50.102;14.434;2023-12-29T00:47:29;99190.63;;;8.78;70.99
76128;BME280;64873;50.102;14.434;2023-12-29T00:49:55;99183.66;;;8.77;70.96
76128;BME280;64873;50.102;14.434;2023-12-29T00:52:20;99191.66;;;8.77;70.90
76128;BME280;64873;50.102;14.434;2023-12-29T00:54:45;99177.50;;;8.84;70.87
76128;BME280;64873;50.102;14.434;2023-12-29T00:57:11;99179.56;;;8.75;71.23
76128;BME280;64873;50.102;14.434;2023-12-29T00:59:37;99184.50;;;8.71;71.45
76128;BME280;64873;50.102;14.434;2023-12-29T01:02:03;99187.75;;;8.73;71.27
76128;BME280;64873;50.102;14.434;2023-12-29T01:04:29;99186.13;;;8.72;71.76
76128;BME280;64873;50.102;14.434;2023-12-29T01:06:54;99170.94;;;8.93;71.09
76128;BME280;64873;50.102;14.434;2023-12-29T01:09:19;99182.00;;;8.83;71.49
76128;BME280;64873;50.102;14.434;2023-12-29T01:11:45;99185.69;;;8.89;71.36
76128;BME280;64873;50.102;14.434;2023-12-29T01:14:10;99168.06;;;8.88;71.31
76128;BME280;64873;50.102;14.434;2023-12-29T01:16:35;99180.31;;;9.02;71.26
76128;BME280;64873;50.102;14.434;2023-12-29T01:19:01;99179.13;;;8.98;71.64
76128;BME280;64873;50.102;14.434;2023-12-29T01:21:26;99176.47;;;8.98;71.50
76128;BME280;64873;50.102;14.434;2023-12-29T01:23:52;99177.50;;;8.84;72.17
76128;BME280;64873;50.102;14.434;2023-12-29T01:26:17;99177.69;;;8.89;72.36
76128;BME280;64873;50.102;14.434;2023-12-29T01:28:43;99188.16;;;8.84;72.46
76128;BME280;64873;50.102;14.434;2023-12-29T01:31:08;99188.16;;;8.84;72.89
76128;BME280;64873;50.102;14.434;2023-12-29T01:33:34;99168.50;;;8.78;72.90
76128;BME280;64873;50.102;14.434;2023-12-29T01:36:00;99179.16;;;8.91;72.41
76128;BME280;64873;50.102;14.434;2023-12-29T01:38:25;99177.06;;;9.00;72.46
76128;BME280;64873;50.102;14.434;2023-12-29T01:40:51;99170.50;;;8.96;72.24
76128;BME280;64873;50.102;14.434;2023-12-29T01:43:16;99185.69;;;8.89;72.96
76128;BME280;64873;50.102;14.434;2023-12-29T01:45:41;99177.94;;;8.74;73.42
76128;BME280;64873;50.102;14.434;2023-12-29T01:48:07;99164.63;;;8.47;74.93
76128;BME280;64873;50.102;14.434;2023-12-29T01:50:34;99155.00;;;8.53;74.80
76128;BME280;64873;50.102;14.434;2023-12-29T01:53:01;99164.03;;;8.52;75.21
76128;BME280;64873;50.102;14.434;2023-12-29T01:55:27;99170.97;;;8.60;74.83
76128;BME280;64873;50.102;14.434;2023-12-29T01:57:54;99165.25;;;8.56;75.29
76128;BME280;64873;50.102;14.434;2023-12-29T02:00:21;99164.81;;;8.72;74.75
76128;BME280;64873;50.102;14.434;2023-12-29T02:02:47;99154.97;;;8.86;74.02
76128;BME280;64873;50.102;14.434;2023-12-29T02:05:13;99151.28;;;8.80;74.50
76128;BME280;64873;50.102;14.434;2023-12-29T02:07:41;99163.50;;;9.08;73.90
76128;BME280;64873;50.102;14.434;2023-12-29T02:10:06;99168.22;;;9.06;74.37
76128;BME280;64873;50.102;14.434;2023-12-29T02:12:34;99166.41;;;9.00;74.09
76128;BME280;64873;50.102;14.434;2023-12-29T02:15:02;99155.53;;;8.95;74.58
76128;BME280;64873;50.102;14.434;2023-12-29T02:17:35;99157.81;;;8.98;74.40
76128;BME280;64873;50.102;14.434;2023-12-29T02:20:04;99143.44;;;8.99;74.44
76128;BME280;64873;50.102;14.434;2023-12-29T02:22:30;99138.34;;;8.97;74.68
76128;BME280;64873;50.102;14.434;2023-12-29T02:24:55;99125.50;;;8.68;75.66
76128;BME280;64873;50.102;14.434;2023-12-29T02:32:30;99126.31;;;8.48;76.98
76128;BME280;64873;50.102;14.434;2023-12-29T02:34:59;99130.84;;;8.48;77.18
76128;BME280;64873;50.102;14.434;2023-12-29T02:37:26;99119.16;;;8.49;76.49
76128;BME280;64873;50.102;14.434;2023-12-29T02:39:52;99118.13;;;8.43;77.08
76128;BME280;64873;50.102;14.434;2023-12-29T02:42:18;99111.59;;;8.46;76.54
76128;BME280;64873;50.102;14.434;2023-12-29T02:44:43;99107.47;;;8.63;76.23
76128;BME280;64873;50.102;14.434;2023-12-29T02:47:09;99102.34;;;8.68;76.13
76128;BME280;64873;50.102;14.434;2023-12-29T02:49:34;99091.19;;;8.85;75.41
76128;BME280;64873;50.102;14.434;2023-12-29T02:51:59;99099.19;;;8.98;75.12
76128;BME280;64873;50.102;14.434;2023-12-29T02:54:25;99106.19;;;8.79;75.58
76128;BME280;64873;50.102;14.434;2023-12-29T02:56:50;99114.72;;;9.01;74.87
76128;BME280;64873;50.102;14.434;2023-12-29T02:59:15;99106.19;;;8.86;75.15
76128;BME280;64873;50.102;14.434;2023-12-29T03:01:41;99102.63;;;9.05;74.98
76128;BME280;64873;50.102;14.434;2023-12-29T03:04:06;99099.59;;;8.88;75.13
76128;BME280;64873;50.102;14.434;2023-12-29T03:06:32;99090.66;;;8.69;75.76
76128;BME280;64873;50.102;14.434;2023-12-29T03:08:57;99093.06;;;8.77;75.46
76128;BME280;64873;50.102;14.434;2023-12-29T03:11:22;99093.88;;;8.85;75.15
76128;BME280;64873;50.102;14.434;2023-12-29T03:13:48;99081.97;;;8.94;74.77
76128;BME280;64873;50.102;14.434;2023-12-29T03:16:13;99090.97;;;8.99;74.25
76128;BME280;64873;50.102;14.434;2023-12-29T03:18:39;99087.28;;;8.94;74.84
76128;BME280;64873;50.102;14.434;2023-12-29T03:21:06;99076.63;;;8.94;74.31
76128;BME280;64873;50.102;14.434;2023-12-29T03:23:32;99073.84;;;8.75;74.79
76128;BME280;64873;50.102;14.434;2023-12-29T03:25:58;99080.22;;;8.61;75.92
76128;BME280;64873;50.102;14.434;2023-12-29T03:28:23;99071.03;;;8.44;75.94
76128;BME280;64873;50.102;14.434;2023-12-29T03:30:49;99067.75;;;8.35;76.85
76128;BME280;64873;50.102;14.434;2023-12-29T03:33:15;99051.38;;;8.18;77.08
76128;BME280;64873;50.102;14.434;2023-12-29T03:35:40;99058.34;;;8.06;77.66
76128;BME280;64873;50.102;14.434;2023-12-29T03:38:05;99055.47;;;8.14;77.79
76128;BME280;64873;50.102;14.434;2023-12-29T03:40:31;99045.44;;;8.03;77.87
76128;BME280;64873;50.102;14.434;2023-12-29T03:42:56;99040.34;;;7.95;78.01
76128;BME280;64873;50.102;14.434;2023-12-29T03:45:22;99043.22;;;8.00;78.44
76128;BME280;64873;50.102;14.434;2023-12-29T03:47:47;99032.53;;;8.13;77.48
76128;BME280;64873;50.102;14.434;2023-12-29T03:50:12;99037.88;;;8.00;78.21
76128;BME280;64873;50.102;14.434;2023-12-29T03:52:38;99047.94;;;7.98;77.74
76128;BME280;64873;50.102;14.434;2023-12-29T03:55:04;99032.56;;;7.73;79.17
76128;BME280;64873;50.102;14.434;2023-12-29T03:57:30;99048.94;;;7.84;78.66
76128;BME280;64873;50.102;14.434;2023-12-29T03:59:55;99038.28;;;7.97;78.31
76128;BME280;64873;50.102;14.434;2023-12-29T04:02:20;99034.63;;;7.98;77.70
76128;BME280;64873;50.102;14.434;2023-12-29T04:04:46;99027.25;;;7.93;77.81
76128;BME280;64873;50.102;14.434;2023-12-29T04:07:11;99042.78;;;7.96;77.71
76128;BME280;64873;50.102;14.434;2023-12-29T04:09:37;99021.31;;;7.98;77.63
76128;BME280;64873;50.102;14.434;2023-12-29T04:12:02;99010.88;;;8.10;76.88
76128;BME280;64873;50.102;14.434;2023-12-29T04:14:28;99000.84;;;7.98;76.95
76128;BME280;64873;50.102;14.434;2023-12-29T04:16:53;99006.38;;;7.90;78.19
76128;BME280;64873;50.102;14.434;2023-12-29T04:19:19;98999.41;;;7.96;77.63
76128;BME280;64873;50.102;14.434;2023-12-29T04:21:44;98994.50;;;7.80;78.20
76128;BME280;64873;50.102;14.434;2023-12-29T04:24:09;98991.22;;;7.91;77.54
76128;BME280;64873;50.102;14.434;2023-12-29T04:26:36;98982.25;;;7.92;77.39
76128;BME280;64873;50.102;14.434;2023-12-29T04:29:02;98986.31;;;7.94;77.28
76128;BME280;64873;50.102;14.434;2023-12-29T04:31:27;98968.72;;;7.93;77.60
76128;BME280;64873;50.102;14.434;2023-12-29T04:33:53;98951.94;;;7.80;77.95
76128;BME280;64873;50.102;14.434;2023-12-29T04:36:18;98957.47;;;7.98;77.53
76128;BME280;64873;50.102;14.434;2023-12-29T04:38:43;98958.28;;;7.98;77.45
76128;BME280;64873;50.102;14.434;2023-12-29T04:41:11;98948.84;;;8.09;76.37
76128;BME280;64873;50.102;14.434;2023-12-29T04:43:37;98957.63;;;8.03;76.92
76128;BME280;64873;50.102;14.434;2023-12-29T04:46:02;98956.03;;;7.95;77.46
76128;BME280;64873;50.102;14.434;2023-12-29T04:48:28;98951.31;;;7.91;77.53
76128;BME280;64873;50.102;14.434;2023-12-29T04:50:53;98953.97;;;7.91;78.12
76128;BME280;64873;50.102;14.434;2023-12-29T04:53:19;98959.72;;;7.88;77.71
76128;BME280;64873;50.102;14.434;2023-12-29T04:55:44;98963.63;;;7.92;77.72
76128;BME280;64873;50.102;14.434;2023-12-29T04:58:10;98964.63;;;8.04;76.78
76128;BME280;64873;50.102;14.434;2023-12-29T05:00:35;98980.59;;;8.04;77.04
76128;BME280;64873;50.102;14.434;2023-12-29T05:03:01;98992.84;;;8.05;77.40
76128;BME280;64873;50.102;14.434;2023-12-29T05:05:26;98983.03;;;7.99;76.92
76128;BME280;64873;50.102;14.434;2023-12-29T05:07:51;98993.66;;;8.12;76.18
76128;BME280;64873;50.102;14.434;2023-12-29T05:10:17;98985.88;;;8.11;76.48
76128;BME280;64873;50.102;14.434;2023-12-29T05:12:42;98997.75;;;8.21;76.03
76128;BME280;64873;50.102;14.434;2023-12-29T05:15:08;98989.16;;;8.06;76.44
76128;BME280;64873;50.102;14.434;2023-12-29T05:17:33;98988.56;;;8.11;76.37
76128;BME280;64873;50.102;14.434;2023-12-29T05:19:58;98996.72;;;8.22;75.87
76128;BME280;64873;50.102;14.434;2023-12-29T05:22:24;98985.44;;;8.20;75.52
76128;BME280;64873;50.102;14.434;2023-12-29T05:24:49;98998.13;;;8.45;74.57
76128;BME280;64873;50.102;14.434;2023-12-29T05:27:15;98988.28;;;8.32;75.58
76128;BME280;64873;50.102;14.434;2023-12-29T05:29:41;98980.72;;;8.29;75.14
76128;BME280;64873;50.102;14.434;2023-12-29T05:32:06;98991.50;;;8.61;74.09
76128;BME280;64873;50.102;14.434;2023-12-29T05:34:33;98983.53;;;8.54;74.16
76128;BME280;64873;50.102;14.434;2023-12-29T05:36:58;98991.75;;;8.52;74.08
76128;BME280;64873;50.102;14.434;2023-12-29T05:39:24;98970.88;;;8.43;74.38
76128;BME280;64873;50.102;14.434;2023-12-29T05:41:49;98996.06;;;8.47;74.42
76128;BME280;64873;50.102;14.434;2023-12-29T05:44:15;98973.91;;;8.53;74.31
76128;BME280;64873;50.102;14.434;2023-12-29T05:46:41;98970.66;;;8.51;73.82
76128;BME280;64873;50.102;14.434;2023-12-29T05:49:06;98987.16;;;8.66;73.63
76128;BME280;64873;50.102;14.434;2023-12-29T05:51:31;98981.25;;;8.64;73.66
76128;BME280;64873;50.102;14.434;2023-12-29T05:53:57;98991.63;;;8.86;72.54
76128;BME280;64873;50.102;14.434;2023-12-29T05:56:22;98990.19;;;8.83;72.31
76128;BME280;64873;50.102;14.434;2023-12-29T05:58:48;99000.00;;;8.82;72.27
76128;BME280;64873;50.102;14.434;2023-12-29T06:01:13;98996.50;;;8.89;71.50
76128;BME280;64873;50.102;14.434;2023-12-29T06:03:39;98990.56;;;8.87;71.59
76128;BME280;64873;50.102;14.434;2023-12-29T06:06:04;98982.22;;;8.76;71.66
76128;BME280;64873;50.102;14.434;2023-12-29T06:08:30;98993.47;;;8.78;71.97
76128;BME280;64873;50.102;14.434;2023-12-29T06:10:55;98969.75;;;8.70;72.03
76128;BME280;64873;50.102;14.434;2023-12-29T06:13:22;98976.47;;;8.79;72.22
76128;BME280;64873;50.102;14.434;2023-12-29T06:15:47;98979.34;;;8.78;72.18
76128;BME280;64873;50.102;14.434;2023-12-29T06:18:12;98971.16;;;8.79;72.52
76128;BME280;64873;50.102;14.434;2023-12-29T06:20:38;98967.44;;;8.80;72.29
76128;BME280;64873;50.102;14.434;2023-12-29T06:23:04;98957.03;;;8.72;72.54
76128;BME280;64873;50.102;14.434;2023-12-29T06:25:29;98952.91;;;8.76;72.46
76128;BME280;64873;50.102;14.434;2023-12-29T06:27:54;98961.56;;;8.65;72.94
76128;BME280;64873;50.102;14.434;2023-12-29T06:30:20;98963.63;;;8.63;73.33
76128;BME280;64873;50.102;14.434;2023-12-29T06:32:45;98971.84;;;8.55;73.81
76128;BME280;64873;50.102;14.434;2023-12-29T06:35:11;98962.84;;;8.49;73.31
76128;BME280;64873;50.102;14.434;2023-12-29T06:37:37;98973.25;;;8.64;72.40
76128;BME280;64873;50.102;14.434;2023-12-29T06:40:05;98969.75;;;8.70;72.11
76128;BME280;64873;50.102;14.434;2023-12-29T06:42:31;98983.66;;;8.72;71.55
76128;BME280;64873;50.102;14.434;2023-12-29T06:44:56;98978.78;;;8.69;71.65
76128;BME280;64873;50.102;14.434;2023-12-29T06:47:22;98987.13;;;8.79;71.10
76128;BME280;64873;50.102;14.434;2023-12-29T06:49:47;98990.41;;;8.81;70.73
76128;BME280;64873;50.102;14.434;2023-12-29T06:52:13;98977.50;;;8.72;71.09
76128;BME280;64873;50.102;14.434;2023-12-29T06:54:39;98995.06;;;8.93;70.35
76128;BME280;64873;50.102;14.434;2023-12-29T06:57:04;98995.06;;;8.93;69.94
76128;BME280;64873;50.102;14.434;2023-12-29T06:59:29;98994.66;;;8.89;70.04
76128;BME280;64873;50.102;14.434;2023-12-29T07:01:55;99001.56;;;8.97;69.88
76128;BME280;64873;50.102;14.434;2023-12-29T07:04:20;99001.56;;;8.97;69.97
76128;BME280;64873;50.102;14.434;2023-12-29T07:06:45;98997.09;;;8.97;69.75
76128;BME280;64873;50.102;14.434;2023-12-29T07:09:11;99004.09;;;8.92;69.86
76128;BME280;64873;50.102;14.434;2023-12-29T07:11:36;99006.53;;;8.93;69.97
76128;BME280;64873;50.102;14.434;2023-12-29T07:14:02;99007.75;;;8.91;70.31
76128;BME280;64873;50.102;14.434;2023-12-29T07:16:28;99008.97;;;8.95;69.92
76128;BME280;64873;50.102;14.434;2023-12-29T07:18:53;99006.72;;;8.98;69.98
76128;BME280;64873;50.102;14.434;2023-12-29T07:21:19;98997.53;;;8.88;70.28
76128;BME280;64873;50.102;14.434;2023-12-29T07:23:44;99004.56;;;8.75;70.94
76128;BME280;64873;50.102;14.434;2023-12-29T07:26:10;99013.09;;;8.91;70.42
76128;BME280;64873;50.102;14.434;2023-12-29T07:28:35;99008.56;;;8.98;70.03
76128;BME280;64873;50.102;14.434;2023-12-29T07:31:01;99014.22;;;9.08;69.65
76128;BME280;64873;50.102;14.434;2023-12-29T07:33:27;99011.81;;;9.00;69.81
76128;BME280;64873;50.102;14.434;2023-12-29T07:35:52;99013.44;;;9.01;69.88
76128;BME280;64873;50.102;14.434;2023-12-29T07:38:18;99013.91;;;8.98;70.01
76128;BME280;64873;50.102;14.434;2023-12-29T07:40:44;99015.34;;;8.94;70.12
76128;BME280;64873;50.102;14.434;2023-12-29T07:43:09;99015.44;;;8.74;70.74
76128;BME280;64873;50.102;14.434;2023-12-29T07:45:35;99014.38;;;8.81;70.52
76128;BME280;64873;50.102;14.434;2023-12-29T07:48:03;99011.91;;;8.87;70.19
76128;BME280;64873;50.102;14.434;2023-12-29T07:50:28;99018.25;;;8.86;70.33
76128;BME280;64873;50.102;14.434;2023-12-29T07:52:54;99002.69;;;8.82;70.05
76128;BME280;64873;50.102;14.434;2023-12-29T07:55:19;99007.22;;;8.75;70.40
76128;BME280;64873;50.102;14.434;2023-12-29T07:57:45;98999.91;;;8.58;70.95
76128;BME280;64873;50.102;14.434;2023-12-29T08:00:14;99002.16;;;8.61;70.37
76128;BME280;64873;50.102;14.434;2023-12-29T08:02:40;99006.25;;;8.63;70.49
76128;BME280;64873;50.102;14.434;2023-12-29T08:05:05;99019.31;;;8.71;69.82
76128;BME280;64873;50.102;14.434;2023-12-29T08:07:33;99016.25;;;8.74;69.63
76128;BME280;64873;50.102;14.434;2023-12-29T08:10:00;99025.56;;;8.97;68.35
76128;BME280;64873;50.102;14.434;2023-12-29T08:12:26;99024.59;;;8.85;69.16
76128;BME280;64873;50.102;14.434;2023-12-29T08:14:53;99023.19;;;8.82;69.56
76128;BME280;64873;50.102;14.434;2023-12-29T08:17:18;99021.94;;;8.85;69.59
76128;BME280;64873;50.102;14.434;2023-12-29T08:19:44;99023.75;;;8.91;69.52
76128;BME280;64873;50.102;14.434;2023-12-29T08:22:09;99012.63;;;9.00;68.99
76128;BME280;64873;50.102;14.434;2023-12-29T08:24:35;99030.72;;;8.92;69.41
76128;BME280;64873;50.102;14.434;2023-12-29T08:27:00;99041.72;;;9.02;68.96
76128;BME280;64873;50.102;14.434;2023-12-29T08:29:25;99050.94;;;9.06;68.49
76128;BME280;64873;50.102;14.434;2023-12-29T08:31:51;99057.13;;;9.00;68.89
76128;BME280;64873;50.102;14.434;2023-12-29T08:34:17;99067.53;;;9.08;68.91
76128;BME280;64873;50.102;14.434;2023-12-29T08:36:43;99069.84;;;9.04;68.10
76128;BME280;64873;50.102;14.434;2023-12-29T08:39:08;99072.06;;;9.07;67.54
76128;BME280;64873;50.102;14.434;2023-12-29T08:41:34;99065.47;;;9.17;67.00
76128;BME280;64873;50.102;14.434;2023-12-29T08:44:00;99075.84;;;9.31;67.11
76128;BME280;64873;50.102;14.434;2023-12-29T08:46:26;99080.38;;;9.24;66.56
76128;BME280;64873;50.102;14.434;2023-12-29T08:48:51;99075.59;;;9.40;66.29
76128;BME280;64873;50.102;14.434;2023-12-29T08:51:17;99076.09;;;9.23;66.36
76128;BME280;64873;50.102;14.434;2023-12-29T08:53:42;99071.94;;;9.66;66.33
76128;BME280;64873;50.102;14.434;2023-12-29T08:56:08;99071.66;;;9.80;64.18
76128;BME280;64873;50.102;14.434;2023-12-29T08:58:33;99077.03;;;9.74;64.42
76128;BME280;64873;50.102;14.434;2023-12-29T09:00:58;99079.19;;;9.58;65.06
76128;BME280;64873;50.102;14.434;2023-12-29T09:03:24;99088.69;;;9.48;65.76
76128;BME280;64873;50.102;14.434;2023-12-29T09:05:49;99088.44;;;9.56;65.57
76128;BME280;64873;50.102;14.434;2023-12-29T09:08:15;99096.31;;;9.44;65.65
76128;BME280;64873;50.102;14.434;2023-12-29T09:10:40;99094.72;;;9.68;64.95
76128;BME280;64873;50.102;14.434;2023-12-29T09:13:06;99101.81;;;9.81;65.01
76128;BME280;64873;50.102;14.434;2023-12-29T09:15:32;99095.09;;;10.28;63.44
76128;BME280;64873;50.102;14.434;2023-12-29T09:17:57;99087.25;;;10.33;63.14
76128;BME280;64873;50.102;14.434;2023-12-29T09:20:23;99106.88;;;10.14;63.71
76128;BME280;64873;50.102;14.434;2023-12-29T09:22:48;99091.53;;;10.09;63.93
76128;BME280;64873;50.102;14.434;2023-12-29T09:25:14;99090.81;;;9.96;64.88
76128;BME280;64873;50.102;14.434;2023-12-29T09:27:39;99097.81;;;9.97;64.64
76128;BME280;64873;50.102;14.434;2023-12-29T09:30:05;99103.75;;;9.99;64.38
76128;BME280;64873;50.102;14.434;2023-12-29T09:32:31;99105.19;;;10.20;64.27
76128;BME280;64873;50.102;14.434;2023-12-29T09:34:56;99094.31;;;10.21;63.36
76128;BME280;64873;50.102;14.434;2023-12-29T09:37:22;99104.59;;;10.24;63.60
76128;BME280;64873;50.102;14.434;2023-12-29T09:39:48;99097.06;;;10.39;62.64
76128;BME280;64873;50.102;14.434;2023-12-29T09:42:20;99084.03;;;10.50;61.44
76128;BME280;64873;50.102;14.434;2023-12-29T09:44:50;99096.59;;;10.43;61.37
76128;BME280;64873;50.102;14.434;2023-12-29T09:47:20;99113.53;;;10.55;61.00
76128;BME280;64873;50.102;14.434;2023-12-29T09:49:48;99110.84;;;10.98;59.71
76128;BME280;64873;50.102;14.434;2023-12-29T09:52:15;99116.19;;;10.98;59.35
76128;BME280;64873;50.102;14.434;2023-12-29T09:54:42;99116.69;;;11.25;58.84
76128;BME280;64873;50.102;14.434;2023-12-29T09:57:08;99117.75;;;11.06;58.97
76128;BME280;64873;50.102;14.434;2023-12-29T09:59:35;99115.22;;;10.74;60.05
76128;BME280;64873;50.102;14.434;2023-12-29T10:02:14;99114.59;;;10.54;60.72
76128;BME280;64873;50.102;14.434;2023-12-29T10:04:43;99113.69;;;10.60;60.80
76128;BME280;64873;50.102;14.434;2023-12-29T10:07:14;99115.41;;;10.54;61.07
76128;BME280;64873;50.102;14.434;2023-12-29T10:09:40;99118.63;;;10.63;60.97
76128;BME280;64873;50.102;14.434;2023-12-29T10:12:09;99102.91;;;10.73;60.46
76128;BME280;64873;50.102;14.434;2023-12-29T10:14:49;99107.72;;;10.83;60.16
76128;BME280;64873;50.102;14.434;2023-12-29T10:17:43;99080.91;;;10.89;58.98
76128;BME280;64873;50.102;14.434;2023-12-29T10:23:14;99077.41;;;11.07;58.79
76128;BME280;64873;50.102;14.434;2023-12-29T10:25:42;99091.00;;;11.06;58.56
76128;BME280;64873;50.102;14.434;2023-12-29T10:28:09;99085.22;;;11.09;58.45
76128;BME280;64873;50.102;14.434;2023-12-29T10:30:35;99081.72;;;10.90;59.15
76128;BME280;64873;50.102;14.434;2023-12-29T10:33:03;99087.06;;;10.90;58.82
76128;BME280;64873;50.102;14.434;2023-12-29T10:35:29;99095.00;;;10.78;59.10
76128;BME280;64873;50.102;14.434;2023-12-29T10:38:08;99090.19;;;10.68;59.45
76128;BME280;64873;50.102;14.434;2023-12-29T10:40:34;99084.41;;;10.72;59.52
76128;BME280;64873;50.102;14.434;2023-12-29T10:42:59;99082.47;;;10.79;59.22
76128;BME280;64873;50.102;14.434;2023-12-29T10:45:30;99080.72;;;10.91;59.03
76128;BME280;64873;50.102;14.434;2023-12-29T10:47:55;99073.94;;;10.88;59.12
76128;BME280;64873;50.102;14.434;2023-12-29T10:50:21;99071.09;;;10.83;59.25
76128;BME280;64873;50.102;14.434;2023-12-29T10:52:46;99073.63;;;10.78;59.32
76128;BME280;64873;50.102;14.434;2023-12-29T10:55:12;99060.72;;;10.75;60.39
76128;BME280;64873;50.102;14.434;2023-12-29T10:57:38;99061.00;;;10.67;59.61
76128;BME280;64873;50.102;14.434;2023-12-29T11:00:04;99052.97;;;10.67;59.99
76128;BME280;64873;50.102;14.434;2023-12-29T11:02:31;99038.88;;;10.60;60.09
76128;BME280;64873;50.102;14.434;2023-12-29T11:05:06;99051.19;;;10.61;60.01
76128;BME280;64873;50.102;14.434;2023-12-29T11:07:39;99042.59;;;10.59;60.14
76128;BME280;64873;50.102;14.434;2023-12-29T11:10:09;99052.25;;;10.60;59.92
76128;BME280;64873;50.102;14.434;2023-12-29T11:12:36;99044.69;;;10.57;59.77
76128;BME280;64873;50.102;14.434;2023-12-29T11:15:06;99050.03;;;10.57;59.77
76128;BME280;64873;50.102;14.434;2023-12-29T11:17:33;99054.09;;;10.59;60.28
76128;BME280;64873;50.102;14.434;2023-12-29T11:20:00;99049.66;;;10.53;59.98
76128;BME280;64873;50.102;14.434;2023-12-29T11:22:29;99049.81;;;10.58;60.11
76128;BME280;64873;50.102;14.434;2023-12-29T11:24:58;99041.56;;;10.78;59.51
76128;BME280;64873;50.102;14.434;2023-12-29T11:27:28;99036.22;;;10.78;59.02
76128;BME280;64873;50.102;14.434;2023-12-29T11:29:59;99039.03;;;10.83;58.79
76128;BME280;64873;50.102;14.434;2023-12-29T11:35:11;99040.34;;;11.11;58.04
76128;BME280;64873;50.102;14.434;2023-12-29T11:43:32;99021.13;;;11.32;60.79
76128;BME280;64873;50.102;14.434;2023-12-29T11:45:57;99026.47;;;11.32;57.48
76128;BME280;64873;50.102;14.434;2023-12-29T11:48:57;99022.47;;;11.23;58.38
76128;BME280;64873;50.102;14.434;2023-12-29T11:51:39;99014.31;;;11.18;57.51
76128;BME280;64873;50.102;14.434;2023-12-29T11:54:05;99000.28;;;11.23;57.56
76128;BME280;64873;50.102;14.434;2023-12-29T11:56:34;99011.84;;;11.46;56.71
76128;BME280;64873;50.102;14.434;2023-12-29T11:59:17;99017.88;;;11.42;56.28
76128;BME280;64873;50.102;14.434;2023-12-29T12:01:50;99002.13;;;11.22;56.04
76128;BME280;64873;50.102;14.434;2023-12-29T12:07:05;98995.91;;;11.40;56.34
76128;BME280;64873;50.102;14.434;2023-12-29T12:09:38;99010.03;;;11.59;56.01
76128;BME280;64873;50.102;14.434;2023-12-29T12:12:04;99001.28;;;11.52;56.39
76128;BME280;64873;50.102;14.434;2023-12-29T12:14:47;98991.16;;;11.54;57.17
76128;BME280;64873;50.102;14.434;2023-12-29T12:20:07;98981.25;;;11.42;58.30
76128;BME280;64873;50.102;14.434;2023-12-29T12:22:34;98991.63;;;11.51;57.92
76128;BME280;64873;50.102;14.434;2023-12-29T12:25:01;98979.63;;;11.41;58.32
76128;BME280;64873;50.102;14.434;2023-12-29T12:27:28;98975.31;;;11.40;60.00
76128;BME280;64873;50.102;14.434;2023-12-29T12:29:57;98977.09;;;11.70;59.14
76128;BME280;64873;50.102;14.434;2023-12-29T12:32:29;98975.25;;;11.70;59.58
76128;BME280;64873;50.102;14.434;2023-12-29T12:34:55;98968.13;;;11.53;59.68
76128;BME280;64873;50.102;14.434;2023-12-29T12:37:27;98969.81;;;11.35;59.06
76128;BME280;64873;50.102;14.434;2023-12-29T12:39:53;98958.75;;;11.20;59.56
76128;BME280;64873;50.102;14.434;2023-12-29T12:42:22;98973.41;;;11.29;59.24
76128;BME280;64873;50.102;14.434;2023-12-29T12:45:17;98969.56;;;11.25;59.58
76128;BME280;64873;50.102;14.434;2023-12-29T12:47:51;98959.91;;;11.24;59.42
76128;BME280;64873;50.102;14.434;2023-12-29T12:50:16;98968.44;;;11.33;60.80
76128;BME280;64873;50.102;14.434;2023-12-29T12:52:42;98959.53;;;11.09;60.80
76128;BME280;64873;50.102;14.434;2023-12-29T12:55:08;98965.00;;;11.14;61.67
76128;BME280;64873;50.102;14.434;2023-12-29T12:57:36;98969.19;;;11.10;60.60
76128;BME280;64873;50.102;14.434;2023-12-29T13:00:02;98965.22;;;11.12;60.44
76128;BME280;64873;50.102;14.434;2023-12-29T13:02:30;98960.50;;;11.14;61.28
76128;BME280;64873;50.102;14.434;2023-12-29T13:04:57;98967.56;;;11.09;61.56
76128;BME280;64873;50.102;14.434;2023-12-29T13:07:23;98963.38;;;11.13;58.85
76128;BME280;64873;50.102;14.434;2023-12-29T13:09:50;98968.91;;;11.00;58.30
76128;BME280;64873;50.102;14.434;2023-12-29T13:12:17;98963.56;;;11.00;58.67
76128;BME280;64873;50.102;14.434;2023-12-29T13:14:43;98969.81;;;10.93;58.83
76128;BME280;64873;50.102;14.434;2023-12-29T13:17:10;98973.69;;;10.98;58.79